Time;durP1;ratioP1;P1;durP2;ratioP2;P2;SDS_P1;SDS_P2;PMS_P1;PMS_P2;Temp;Humidity;BMP_temperature;BMP_pressure;BME280_temperature;BME280_humidity;BME280_pressure;Samples;Min_cycle;Max_cycle;Signal;HPM_P1;HPM_P2
2023/01/05 00:02:10;;;;;;;43.65;20.27;;;;;;;6.17;77.43;94734.94;6164498;23;20001;-78
2023/01/05 00:04:35;;;;;;;36.13;18.83;;;;;;;6.20;77.40;94737.06;6164849;23;19997;-78
2023/01/05 00:07:01;;;;;;;37.13;16.13;;;;;;;6.22;77.41;94730.44;6164799;23;20016;-78
2023/01/05 00:09:26;;;;;;;36.22;17.77;;;;;;;6.28;77.27;94735.75;6164797;23;20177;-78
2023/01/05 00:23:01;;;;;;;41.25;19.45;;;;;;;6.12;79.51;94724.34;6164902;23;20036;-78
2023/01/05 00:25:30;;;;;;;36.05;18.30;;;;;;;6.12;79.40;94725.13;6164992;23;20158;-78
2023/01/05 00:27:57;;;;;;;37.58;18.45;;;;;;;6.18;79.15;94725.94;6164937;23;19997;-78
2023/01/05 00:30:29;;;;;;;31.60;16.27;;;;;;;6.23;79.17;94716.16;6164708;23;20028;-78
2023/01/05 00:32:54;;;;;;;35.70;17.75;;;;;;;6.27;79.00;94710.31;6164852;23;19997;-79
2023/01/05 00:35:21;;;;;;;43.25;19.02;;;;;;;6.33;78.71;94714.53;6164738;23;20005;-78
2023/01/05 00:37:47;;;;;;;40.72;18.40;;;;;;;6.34;78.72;94710.84;6164871;23;20005;-78
2023/01/05 00:40:17;;;;;;;35.15;17.55;;;;;;;6.40;78.38;94707.94;6164831;23;20192;-79
2023/01/05 00:42:43;;;;;;;37.80;19.02;;;;;;;6.46;78.10;94708.72;6164636;23;19997;-78
2023/01/05 00:45:11;;;;;;;40.70;19.27;;;;;;;6.50;78.23;94696.53;6165046;23;20010;-78
2023/01/05 00:47:37;;;;;;;40.22;19.38;;;;;;;6.54;78.04;94702.91;6164723;23;20192;-78
2023/01/05 00:50:03;;;;;;;33.03;15.70;;;;;;;6.59;77.79;94707.38;6164600;23;20012;-78
2023/01/05 00:52:29;;;;;;;32.78;15.27;;;;;;;6.66;77.48;94707.13;6138586;23;20280;-79
2023/01/05 00:54:54;;;;;;;23.45;13.35;;;;;;;6.67;76.88;94703.41;6165012;23;20070;-78
2023/01/05 00:57:20;;;;;;;21.85;12.02;;;;;;;6.67;76.71;94706.06;6164561;23;20001;-78
2023/01/05 00:59:45;;;;;;;32.63;15.85;;;;;;;6.68;76.82;94705.00;6164592;23;20173;-79
2023/01/05 01:02:11;;;;;;;32.60;15.68;;;;;;;6.71;76.89;94701.81;6164764;23;19994;-79
2023/01/05 01:04:37;;;;;;;33.42;15.45;;;;;;;6.74;76.84;94703.94;6164564;23;20001;-78
2023/01/05 01:07:04;;;;;;;32.95;17.50;;;;;;;6.78;76.79;94711.09;6164600;23;19998;-79
2023/01/05 01:09:29;;;;;;;31.77;15.30;;;;;;;6.81;76.84;94704.44;6164478;23;19998;-79
2023/01/05 01:11:55;;;;;;;33.00;16.20;;;;;;;6.84;76.72;94706.56;6165155;23;20053;-79
2023/01/05 01:14:20;;;;;;;32.00;16.05;;;;;;;6.87;76.46;94700.72;6166142;23;20021;-79
2023/01/05 01:16:46;;;;;;;27.08;14.00;;;;;;;6.89;76.27;94701.25;6166321;23;20024;-79
2023/01/05 01:19:18;;;;;;;27.35;14.98;;;;;;;6.90;76.10;94710.81;6166454;23;19998;-79
2023/01/05 01:21:44;;;;;;;31.67;15.15;;;;;;;6.89;75.83;94703.91;6166441;23;20000;-79
2023/01/05 01:24:18;;;;;;;30.08;15.25;;;;;;;6.91;75.86;94700.97;6140320;23;20065;-78
2023/01/05 01:26:44;;;;;;;29.08;14.88;;;;;;;6.94;75.68;94698.59;6166342;23;19997;-79
2023/01/05 01:29:10;;;;;;;29.67;14.90;;;;;;;6.93;75.52;94689.03;6165975;23;20311;-81
2023/01/05 01:31:36;;;;;;;23.42;13.63;;;;;;;6.96;75.21;94679.75;6165934;23;20017;-77
2023/01/05 01:34:02;;;;;;;28.25;15.48;;;;;;;6.95;75.44;94684.28;6166320;23;20032;-78
2023/01/05 01:36:28;;;;;;;27.02;13.60;;;;;;;6.97;75.18;94673.41;6166081;23;20005;-78
2023/01/05 01:38:53;;;;;;;27.15;13.63;;;;;;;6.98;75.02;94678.44;6166244;23;20327;-78
2023/01/05 01:41:19;;;;;;;29.52;13.90;;;;;;;6.99;74.93;94671.28;6165889;23;19997;-79
2023/01/05 01:43:55;;;;;;;33.33;16.05;;;;;;;7.02;75.28;94663.59;6165924;23;20028;-79
2023/01/05 01:46:22;;;;;;;27.80;14.32;;;;;;;6.96;75.17;94656.72;6165727;23;19993;-78
2023/01/05 01:48:58;;;;;;;31.20;14.30;;;;;;;6.99;75.30;94655.38;6166050;23;20025;-78
2023/01/05 01:51:34;;;;;;;28.42;15.13;;;;;;;7.01;75.42;94646.09;6139989;23;20008;-78
2023/01/05 01:54:04;;;;;;;32.22;15.73;;;;;;;7.02;75.39;94647.69;6166029;23;20010;-79
2023/01/05 01:56:34;;;;;;;31.55;16.75;;;;;;;7.03;75.23;94646.59;6165845;23;20000;-78
2023/01/05 01:58:59;;;;;;;28.27;15.85;;;;;;;7.02;75.13;94634.44;6165755;23;20017;-78
2023/01/05 02:01:25;;;;;;;30.73;17.02;;;;;;;7.03;75.24;94636.00;6139904;23;20001;-78
2023/01/05 02:03:50;;;;;;;29.95;15.77;;;;;;;7.03;74.97;94636.00;6165914;23;20291;-78
2023/01/05 02:06:16;;;;;;;30.98;14.95;;;;;;;7.02;75.14;94633.63;6165879;23;20001;-79
2023/01/05 02:08:49;;;;;;;30.08;15.30;;;;;;;7.01;74.87;94626.75;6165656;23;20001;-79
2023/01/05 02:11:37;;;;;;;27.15;14.65;;;;;;;7.01;74.96;94627.53;6165634;23;20021;-79
2023/01/05 02:14:25;;;;;;;28.35;14.50;;;;;;;6.98;74.90;94619.31;6165614;23;20037;-79
2023/01/05 02:17:13;;;;;;;32.85;16.88;;;;;;;6.93;75.23;94614.06;6165750;23;20352;-79
2023/01/05 02:20:03;;;;;;;29.80;14.73;;;;;;;6.90;75.03;94611.94;6165550;23;20195;-78
2023/01/05 02:22:50;;;;;;;30.90;16.73;;;;;;;6.90;75.14;94604.78;6165755;23;20002;-79
2023/01/05 02:25:24;;;;;;;32.78;14.90;;;;;;;6.86;75.19;94611.69;6165014;23;19997;-79
2023/01/05 02:28:31;;;;;;;35.22;15.85;;;;;;;6.86;75.05;94601.09;6139594;23;20296;-79
2023/01/05 02:31:21;;;;;;;31.73;14.90;;;;;;;6.83;75.13;94605.06;6165301;23;19997;-78
2023/01/05 02:33:56;;;;;;;29.20;15.13;;;;;;;6.84;75.25;94605.88;6165275;23;20240;-78
2023/01/05 02:36:49;;;;;;;27.48;14.48;;;;;;;6.83;75.34;94609.56;6139570;23;20005;-78
2023/01/05 02:39:49;;;;;;;31.38;14.90;;;;;;;6.84;75.54;94605.88;6165362;23;19997;-78
2023/01/05 02:42:22;;;;;;;32.88;15.93;;;;;;;6.85;75.19;94609.31;6165685;23;20001;-78
2023/01/05 02:44:47;;;;;;;31.63;15.45;;;;;;;6.84;75.40;94616.47;6165260;23;20012;-78
2023/01/05 02:47:28;;;;;;;33.83;16.52;;;;;;;6.84;75.41;94608.53;6139299;23;20291;-78
2023/01/05 02:50:02;;;;;;;28.15;15.70;;;;;;;6.83;75.12;94601.63;6165664;23;20013;-78
2023/01/05 02:52:36;;;;;;;33.38;16.23;;;;;;;6.83;75.18;94606.94;6165228;23;20017;-78
2023/01/05 02:55:07;;;;;;;35.28;17.27;;;;;;;6.84;75.47;94597.94;6165494;23;20295;-78
2023/01/05 02:57:49;;;;;;;36.53;17.20;;;;;;;6.86;75.32;94594.97;6165539;23;20017;-78
2023/01/05 03:00:28;;;;;;;35.95;17.40;;;;;;;6.87;75.33;94580.69;6165198;23;20000;-78
2023/01/05 03:03:01;;;;;;;34.13;16.55;;;;;;;6.86;75.48;94579.91;6165594;23;20021;-78
2023/01/05 03:06:02;;;;;;;36.92;17.42;;;;;;;6.88;75.58;94574.31;6165276;23;20330;-78
2023/01/05 03:08:30;;;;;;;36.13;16.33;;;;;;;6.86;75.59;94566.66;6165176;23;20013;-78
2023/01/05 03:14:02;;;;;;;32.83;15.65;;;;;;;6.92;75.77;94562.91;6165205;23;20071;-78
2023/01/05 03:16:32;;;;;;;31.27;15.10;;;;;;;6.92;75.68;94562.91;6165000;23;20049;-79
2023/01/05 03:35:42;;;;;;;34.60;17.48;;;;;;;6.96;75.37;94523.38;6164827;23;20008;-78
2023/01/05 03:38:27;;;;;;;39.33;17.55;;;;;;;6.96;75.35;94529.50;6164842;23;20005;-79
2023/01/05 03:40:57;;;;;;;34.40;16.35;;;;;;;6.95;75.36;94522.59;6164949;23;20284;-79
2023/01/05 03:43:22;;;;;;;33.67;16.85;;;;;;;6.94;74.99;94528.97;6165094;23;20181;-79
2023/01/05 03:45:56;;;;;;;35.90;17.45;;;;;;;6.94;75.19;94528.97;6164945;23;20004;-77
2023/01/05 03:48:24;;;;;;;36.40;17.98;;;;;;;6.93;75.22;94535.34;6164818;23;20062;-77
2023/01/05 03:50:50;;;;;;;35.67;16.85;;;;;;;6.93;75.40;94534.53;6164353;23;20001;-78
2023/01/05 03:53:15;;;;;;;38.15;16.08;;;;;;;6.94;75.11;94534.28;6164825;23;20025;-77
2023/01/05 03:55:40;;;;;;;33.05;16.63;;;;;;;6.96;75.37;94541.94;6164756;23;20223;-77
2023/01/05 03:58:06;;;;;;;34.75;17.90;;;;;;;6.95;75.43;94543.00;6164604;23;20064;-77
2023/01/05 04:00:31;;;;;;;30.67;15.60;;;;;;;6.97;75.27;94533.72;6164699;23;20180;-79
2023/01/05 04:02:57;;;;;;;38.67;17.33;;;;;;;6.97;75.35;94532.94;6164807;23;20219;-77
2023/01/05 04:05:22;;;;;;;34.40;19.05;;;;;;;6.97;75.31;94531.06;6165025;23;20020;-77
2023/01/05 04:07:48;;;;;;;34.30;17.15;;;;;;;6.98;75.52;94524.72;6164679;23;20192;-79
2023/01/05 04:10:13;;;;;;;35.40;16.83;;;;;;;7.00;75.20;94517.28;6164868;23;20057;-79
2023/01/05 04:12:39;;;;;;;36.00;17.83;;;;;;;6.99;74.95;94514.91;6164558;23;20284;-76
2023/01/05 04:15:05;;;;;;;35.30;16.88;;;;;;;6.98;75.09;94514.13;6164543;23;20011;-76
2023/01/05 04:17:30;;;;;;;32.50;17.17;;;;;;;6.99;75.10;94510.38;6164591;23;19997;-75
2023/01/05 04:19:56;;;;;;;31.88;17.70;;;;;;;6.99;75.10;94517.56;6138739;23;20044;-76
2023/01/05 04:22:22;;;;;;;36.42;17.23;;;;;;;6.97;75.15;94509.09;6164738;23;19998;-76
2023/01/05 04:24:47;;;;;;;38.67;18.70;;;;;;;6.96;75.07;94516.25;6164666;23;20012;-76
2023/01/05 04:27:12;;;;;;;33.78;17.35;;;;;;;6.93;75.28;94500.88;6164414;23;20012;-76
2023/01/05 04:29:38;;;;;;;39.03;18.33;;;;;;;6.92;75.25;94503.78;6164526;23;20017;-77
2023/01/05 04:32:04;;;;;;;35.58;17.60;;;;;;;6.91;75.45;94499.56;6164513;23;20002;-76
2023/01/05 04:34:29;;;;;;;31.45;17.13;;;;;;;6.86;75.36;94504.88;6164293;23;20042;-78
2023/01/05 04:36:54;;;;;;;38.22;18.08;;;;;;;6.81;75.30;94493.25;6164906;23;20196;-76
2023/01/05 04:39:20;;;;;;;36.00;18.10;;;;;;;6.80;75.31;94494.34;6164470;23;20198;-76
2023/01/05 04:41:47;;;;;;;34.78;17.60;;;;;;;6.75;75.33;94501.50;6164393;23;20048;-77
2023/01/05 04:44:13;;;;;;;37.67;18.10;;;;;;;6.71;75.35;94503.13;6164378;23;20028;-78
2023/01/05 04:46:38;;;;;;;38.65;16.20;;;;;;;6.65;75.18;94501.56;6164418;23;20001;-76
2023/01/05 04:49:04;;;;;;;34.17;17.55;;;;;;;6.58;75.42;94502.66;6166410;23;20025;-76
2023/01/05 04:51:29;;;;;;;40.05;20.40;;;;;;;6.53;75.23;94502.66;6166533;23;20048;-78
2023/01/05 04:53:55;;;;;;;30.30;17.02;;;;;;;6.47;75.19;94509.03;6166845;23;20308;-76
2023/01/05 04:56:20;;;;;;;37.22;18.70;;;;;;;6.41;75.33;94518.88;6166321;23;20240;-76
2023/01/05 04:58:46;;;;;;;34.38;17.52;;;;;;;6.36;75.42;94523.38;6166355;23;20052;-79
2023/01/05 05:01:11;;;;;;;35.28;18.80;;;;;;;6.30;75.68;94519.16;6166328;23;19994;-76
2023/01/05 05:03:37;;;;;;;31.90;17.05;;;;;;;6.22;76.16;94520.50;6166328;23;20169;-76
2023/01/05 05:06:02;;;;;;;40.90;18.35;;;;;;;6.21;76.46;94529.53;6166258;23;20242;-77
2023/01/05 05:08:28;;;;;;;38.25;18.42;;;;;;;6.12;76.78;94523.97;6166296;23;19997;-77
2023/01/05 05:10:53;;;;;;;38.70;19.67;;;;;;;6.08;76.80;94528.22;6166436;23;19997;-79
2023/01/05 05:13:19;;;;;;;38.58;19.70;;;;;;;6.01;76.73;94525.84;6166379;23;20009;-77
2023/01/05 05:15:44;;;;;;;40.80;19.17;;;;;;;5.97;76.94;94532.75;6166233;23;20001;-79
2023/01/05 05:18:10;;;;;;;38.53;20.38;;;;;;;5.96;76.97;94530.34;6140284;23;20004;-77
2023/01/05 05:20:40;;;;;;;34.80;18.13;;;;;;;5.94;76.84;94524.50;6139815;23;19997;-77
2023/01/05 05:23:05;;;;;;;35.20;18.60;;;;;;;5.94;77.71;94532.44;6165932;23;20002;-76
2023/01/05 05:25:30;;;;;;;36.65;19.13;;;;;;;5.93;77.69;94531.66;6165869;23;19997;-77
2023/01/05 05:27:56;;;;;;;38.70;19.10;;;;;;;5.97;77.34;94535.38;6166096;23;20005;-77
2023/01/05 05:30:22;;;;;;;41.78;18.25;;;;;;;5.99;77.35;94535.91;6165859;23;20090;-77
2023/01/05 05:32:47;;;;;;;36.42;19.70;;;;;;;5.99;77.32;94527.97;6165993;23;20008;-77
2023/01/05 05:35:13;;;;;;;37.20;18.45;;;;;;;5.97;77.18;94518.72;6165810;23;20060;-77
2023/01/05 05:37:38;;;;;;;46.47;18.92;;;;;;;5.98;77.27;94528.22;6165862;23;20006;-77
2023/01/05 05:40:04;;;;;;;33.88;18.25;;;;;;;6.01;77.13;94511.84;6166067;23;19993;-77
2023/01/05 05:42:33;;;;;;;38.13;18.50;;;;;;;6.00;77.00;94518.16;6165704;23;20008;-76
2023/01/05 05:44:58;;;;;;;39.28;20.25;;;;;;;6.01;77.29;94512.63;6166047;23;20001;-76
2023/01/05 05:47:24;;;;;;;63.55;25.17;;;;;;;6.00;77.19;94504.94;6166028;23;20005;-76
2023/01/05 05:49:49;;;;;;;79.30;37.88;;;;;;;6.01;77.21;94495.97;6165799;23;20093;-76
2023/01/05 05:52:15;;;;;;;84.75;39.92;;;;;;;6.00;77.04;94494.34;6165827;23;19998;-77
2023/01/05 05:54:40;;;;;;;60.78;28.52;;;;;;;5.93;77.05;94488.53;6166014;23;20199;-77
2023/01/05 05:57:06;;;;;;;43.03;21.10;;;;;;;5.90;76.86;94484.56;6165723;23;19998;-76
2023/01/05 05:59:31;;;;;;;51.53;21.58;;;;;;;5.86;76.89;94480.84;6164619;23;20002;-76
2023/01/05 06:01:57;;;;;;;42.88;21.02;;;;;;;5.82;77.02;94479.81;6165603;23;19997;-76
2023/01/05 06:04:22;;;;;;;46.58;18.38;;;;;;;5.78;76.96;94478.75;6165622;23;20186;-76
2023/01/05 06:06:47;;;;;;;39.63;19.13;;;;;;;5.74;76.99;94477.72;6165580;23;19997;-75
2023/01/05 06:09:13;;;;;;;44.22;19.63;;;;;;;5.69;76.89;94470.56;6165338;23;20292;-75
2023/01/05 06:11:38;;;;;;;53.53;22.40;;;;;;;5.66;77.05;94473.78;6165690;23;20044;-75
2023/01/05 06:14:05;;;;;;;53.35;20.90;;;;;;;5.63;76.97;94474.28;6165583;23;20005;-75
2023/01/05 06:16:30;;;;;;;47.97;21.25;;;;;;;5.60;76.73;94475.63;6165474;23;20307;-75
2023/01/05 06:18:56;;;;;;;37.75;19.27;;;;;;;5.55;76.42;94472.19;6165724;23;20048;-75
2023/01/05 06:21:22;;;;;;;51.38;25.35;;;;;;;5.47;76.78;94476.16;6165936;23;20001;-76
2023/01/05 06:23:47;;;;;;;58.35;28.75;;;;;;;5.39;76.91;94466.91;6165388;23;20350;-77
2023/01/05 06:26:13;;;;;;;54.90;26.38;;;;;;;5.36;76.83;94470.09;6165199;23;20020;-77
2023/01/05 06:28:38;;;;;;;55.92;25.08;;;;;;;5.33;76.77;94465.34;6165593;23;20002;-76
2023/01/05 06:31:04;;;;;;;51.65;24.95;;;;;;;5.29;76.64;94461.63;6165621;23;20037;-76
2023/01/05 06:33:29;;;;;;;54.33;23.48;;;;;;;5.28;76.56;94461.91;6165398;23;20249;-76
2023/01/05 06:35:57;;;;;;;45.17;21.77;;;;;;;5.27;76.43;94457.66;6165613;23;20000;-76
2023/01/05 06:38:23;;;;;;;49.75;23.13;;;;;;;5.23;76.74;94454.75;6165402;23;20028;-77
2023/01/05 06:40:48;;;;;;;48.63;22.50;;;;;;;5.25;76.51;94450.00;6165570;23;19994;-78
2023/01/05 06:43:14;;;;;;;40.33;19.75;;;;;;;5.24;76.70;94453.69;6165367;23;20021;-78
2023/01/05 06:45:39;;;;;;;43.28;20.70;;;;;;;5.23;77.03;94454.75;6165324;23;19997;-78
2023/01/05 06:48:05;;;;;;;45.45;19.10;;;;;;;5.24;76.95;94461.63;6165289;23;20169;-78
2023/01/05 06:50:31;;;;;;;42.25;19.90;;;;;;;5.25;76.67;94452.66;6164998;23;20036;-77
2023/01/05 06:52:57;;;;;;;41.35;18.27;;;;;;;5.27;76.47;94461.13;6165059;23;20052;-77
2023/01/05 06:55:22;;;;;;;40.22;17.48;;;;;;;5.30;76.52;94463.22;6165418;23;20001;-77
2023/01/05 06:57:48;;;;;;;40.20;16.92;;;;;;;5.32;76.74;94461.09;6165245;23;20347;-77
2023/01/05 07:00:14;;;;;;;43.20;17.95;;;;;;;5.35;76.65;94463.22;6164799;23;19997;-77
2023/01/05 07:02:40;;;;;;;36.20;17.85;;;;;;;5.38;76.90;94467.97;6138856;23;20048;-77
2023/01/05 07:05:06;;;;;;;38.00;18.05;;;;;;;5.45;77.06;94470.34;6164950;23;19997;-77
2023/01/05 07:07:32;;;;;;;40.40;20.38;;;;;;;5.51;77.59;94465.84;6165310;23;19997;-76
2023/01/05 07:09:58;;;;;;;57.05;22.25;;;;;;;5.58;77.80;94466.38;6164682;23;20041;-76
2023/01/05 07:12:23;;;;;;;38.95;20.10;;;;;;;5.63;78.47;94463.72;6165069;23;19998;-76
2023/01/05 07:14:49;;;;;;;38.95;20.00;;;;;;;5.69;78.79;94459.22;6164924;23;20009;-76
2023/01/05 07:17:14;;;;;;;46.60;20.80;;;;;;;5.74;78.78;94457.34;6165124;23;20009;-76
2023/01/05 07:19:40;;;;;;;49.33;21.17;;;;;;;5.80;78.95;94464.22;6164964;23;20017;-76
2023/01/05 07:22:06;;;;;;;49.85;21.33;;;;;;;5.91;78.72;94459.69;6164963;23;19993;-76
2023/01/05 07:24:31;;;;;;;52.08;21.27;;;;;;;5.96;78.24;94459.72;6164861;23;20002;-76
2023/01/05 07:26:58;;;;;;;43.03;20.75;;;;;;;5.95;78.69;94458.13;6165151;23;19994;-76
2023/01/05 07:29:24;;;;;;;54.90;22.17;;;;;;;5.99;78.92;94456.53;6165070;23;20001;-76
2023/01/05 07:31:51;;;;;;;44.22;21.52;;;;;;;6.05;78.76;94459.16;6164981;23;20169;-76
2023/01/05 07:34:17;;;;;;;41.67;20.85;;;;;;;6.13;78.76;94466.56;6164754;23;20226;-76
2023/01/05 07:36:43;;;;;;;49.15;22.08;;;;;;;6.18;78.74;94448.78;6164498;23;20056;-76
2023/01/05 07:39:08;;;;;;;48.60;21.33;;;;;;;6.27;78.50;94442.94;6164680;23;20057;-76
2023/01/05 07:41:34;;;;;;;45.92;21.48;;;;;;;6.32;78.33;94435.75;6138683;23;20001;-76
2023/01/05 07:43:59;;;;;;;40.88;20.25;;;;;;;6.37;78.34;94421.69;6164727;23;20009;-77
2023/01/05 07:46:24;;;;;;;44.90;20.02;;;;;;;6.45;78.35;94426.41;6165040;23;20004;-77
2023/01/05 07:48:50;;;;;;;49.13;22.00;;;;;;;6.50;77.93;94421.13;6164743;23;19997;-77
2023/01/05 07:51:16;;;;;;;44.63;21.55;;;;;;;6.57;77.89;94418.97;6164450;23;19997;-77
2023/01/05 07:53:42;;;;;;;39.28;19.98;;;;;;;6.66;77.86;94416.53;6165003;23;20056;-77
2023/01/05 07:56:09;;;;;;;42.70;19.33;;;;;;;6.76;77.52;94423.63;6164995;23;20204;-77
2023/01/05 07:58:35;;;;;;;45.83;20.42;;;;;;;6.82;77.21;94418.00;6164601;23;20001;-77
2023/01/05 08:01:05;;;;;;;42.95;19.90;;;;;;;6.88;76.99;94415.31;6164560;23;20291;-76
2023/01/05 08:03:31;;;;;;;40.92;19.85;;;;;;;6.96;76.69;94420.03;6164532;23;20191;-77
2023/01/05 08:05:56;;;;;;;44.40;20.60;;;;;;;7.05;75.95;94414.94;6164200;23;19997;-77
2023/01/05 08:08:21;;;;;;;38.10;19.70;;;;;;;7.11;75.86;94416.50;6164510;23;20004;-77
2023/01/05 08:10:47;;;;;;;37.47;20.40;;;;;;;7.19;75.13;94413.25;6164372;23;20014;-77
2023/01/05 08:15:59;;;;;;;53.10;20.60;;;;;;;7.30;74.20;94409.41;6164665;23;20109;-77
2023/01/05 08:18:25;;;;;;;34.80;18.13;;;;;;;7.36;73.72;94402.22;6164333;23;19998;-78
2023/01/05 08:20:59;;;;;;;38.70;18.75;;;;;;;7.38;73.59;94403.50;6164703;23;19997;-78
2023/01/05 08:23:26;;;;;;;38.08;18.60;;;;;;;7.40;73.47;94409.34;6164129;23;19994;-78
2023/01/05 08:25:55;;;;;;;42.47;19.05;;;;;;;7.44;73.12;94410.34;6164565;23;20001;-78
2023/01/05 08:28:21;;;;;;;38.00;19.15;;;;;;;7.46;73.00;94409.31;6164408;23;20009;-77
2023/01/05 08:30:46;;;;;;;46.47;19.90;;;;;;;7.49;72.86;94419.34;6164102;23;20001;-77
2023/01/05 08:33:12;;;;;;;38.80;21.20;;;;;;;7.53;72.78;94412.41;6164374;23;20044;-77
2023/01/05 08:35:43;;;;;;;44.40;19.77;;;;;;;7.58;72.70;94423.75;6164431;23;20315;-77
2023/01/05 08:38:09;;;;;;;47.08;19.73;;;;;;;7.62;72.28;94416.81;6164479;23;19998;-76
2023/01/05 08:40:36;;;;;;;39.10;19.98;;;;;;;7.66;72.23;94417.06;6138729;23;19998;-76
2023/01/05 08:43:03;;;;;;;39.70;20.75;;;;;;;7.67;72.27;94404.56;6164503;23;19994;-77
2023/01/05 08:45:28;;;;;;;39.67;20.58;;;;;;;7.70;72.08;94418.09;6164145;23;19997;-76
2023/01/05 08:47:54;;;;;;;46.80;20.95;;;;;;;7.75;71.96;94404.75;6164554;23;20005;-77
2023/01/05 08:50:19;;;;;;;47.00;21.58;;;;;;;7.78;71.83;94403.41;6164345;23;20292;-77
2023/01/05 08:52:45;;;;;;;43.75;20.77;;;;;;;7.84;71.41;94397.75;6164302;23;20017;-77
2023/01/05 08:55:10;;;;;;;43.50;19.65;;;;;;;7.87;71.49;94398.28;6138281;23;20001;-77
2023/01/05 08:57:36;;;;;;;41.30;20.42;;;;;;;7.90;71.38;94389.75;6164326;23;20231;-77
2023/01/05 09:00:03;;;;;;;43.90;21.85;;;;;;;7.99;71.08;94385.41;6164540;23;20017;-77
2023/01/05 09:02:28;;;;;;;53.55;21.77;;;;;;;8.05;71.02;94386.91;6164466;23;19994;-76
2023/01/05 09:04:53;;;;;;;56.63;21.27;;;;;;;8.10;70.90;94392.19;6164529;23;20217;-75
2023/01/05 09:07:19;;;;;;;37.70;21.10;;;;;;;8.11;70.79;94385.78;6164163;23;20005;-76
2023/01/05 09:09:45;;;;;;;47.22;21.15;;;;;;;8.21;70.45;94368.94;6164431;23;20001;-77
2023/01/05 09:12:10;;;;;;;43.60;23.25;;;;;;;8.24;70.58;94358.53;6164516;23;20307;-78
2023/01/05 09:14:37;;;;;;;45.88;21.17;;;;;;;8.35;70.18;94353.09;6163998;23;20009;-77
2023/01/05 09:17:02;;;;;;;32.20;18.08;;;;;;;8.43;69.39;94339.97;6164378;23;19997;-78
2023/01/05 09:19:27;;;;;;;33.92;16.42;;;;;;;8.53;69.35;94338.25;6164413;23;20036;-77
2023/01/05 09:21:53;;;;;;;37.78;19.05;;;;;;;8.62;68.61;94334.66;6164549;23;20017;-77
2023/01/05 09:24:18;;;;;;;37.88;19.02;;;;;;;8.72;68.26;94320.44;6164467;23;20299;-77
2023/01/05 09:26:44;;;;;;;34.00;16.85;;;;;;;8.79;68.08;94318.22;6164273;23;19998;-76
2023/01/05 09:29:11;;;;;;;42.25;18.05;;;;;;;8.87;67.60;94306.09;6163978;23;20001;-78
2023/01/05 09:31:37;;;;;;;35.10;18.30;;;;;;;8.97;67.04;94295.28;6164333;23;20004;-78
2023/01/05 09:34:02;;;;;;;38.47;20.15;;;;;;;9.00;66.52;94291.28;6165681;23;19998;-78
2023/01/05 09:36:28;;;;;;;41.70;20.00;;;;;;;9.06;66.48;94291.97;6166097;23;19993;-78
2023/01/05 09:38:55;;;;;;;37.28;19.00;;;;;;;9.03;66.57;94290.69;6166285;23;20296;-84
2023/01/05 09:41:42;;;;;;;52.15;22.08;;;;;;;9.04;66.39;94301.03;6165915;23;19989;-77
2023/01/05 09:44:25;;;;;;;46.63;22.15;;;;;;;9.10;66.25;94292.97;6165837;23;20231;-76
2023/01/05 09:46:54;;;;;;;45.53;20.63;;;;;;;9.18;65.53;94287.78;6165851;23;20292;-76
2023/01/05 09:49:22;;;;;;;38.70;19.83;;;;;;;9.27;65.67;94273.78;6165827;23;20053;-77
2023/01/05 09:51:53;;;;;;;35.95;17.35;;;;;;;9.32;65.20;94269.19;6165800;23;20001;-78
2023/01/05 09:54:20;;;;;;;28.73;16.90;;;;;;;9.41;64.75;94256.75;6165928;23;19997;-77
2023/01/05 09:56:48;;;;;;;47.90;18.63;;;;;;;9.48;64.50;94256.34;6165438;23;20002;-76
2023/01/05 09:59:24;;;;;;;39.95;18.42;;;;;;;9.57;63.67;94251.16;6165779;23;20009;-74
2023/01/05 10:01:51;;;;;;;30.38;16.05;;;;;;;9.64;63.25;94248.88;6139719;23;20303;-74
2023/01/05 10:04:22;;;;;;;36.88;16.00;;;;;;;9.71;62.92;94246.59;6165727;23;20215;-74
2023/01/05 10:06:56;;;;;;;27.02;16.15;;;;;;;9.75;62.60;94236.94;6165618;23;20001;-75
2023/01/05 10:09:27;;;;;;;26.23;14.27;;;;;;;9.80;61.98;94239.47;6165970;23;20235;-74
2023/01/05 10:14:46;;;;;;;25.17;13.93;;;;;;;9.94;61.33;94241.34;6165313;23;20019;-74
2023/01/05 10:17:14;;;;;;;32.38;14.95;;;;;;;9.97;61.27;94230.88;6165836;23;20002;-75
2023/01/05 10:19:41;;;;;;;27.48;14.68;;;;;;;10.03;61.13;94239.53;6165588;23;20005;-74
2023/01/05 10:22:39;;;;;;;28.05;13.68;;;;;;;10.09;60.77;94226.91;6165533;23;20307;-74
2023/01/05 10:25:20;;;;;;;25.95;13.18;;;;;;;10.08;60.32;94222.66;6165557;23;20036;-75
2023/01/05 10:27:59;;;;;;;22.00;13.35;;;;;;;10.10;60.11;94221.28;6165514;23;20013;-75
2023/01/05 10:30:41;;;;;;;25.90;12.65;;;;;;;10.17;59.30;94226.19;6139452;23;20017;-75
2023/01/05 10:33:09;;;;;;;;;;;;;;;10.19;58.89;94222.13;6166082;23;19997;-74
2023/01/05 10:35:58;;;;;;;23.65;11.13;;;;;;;10.17;58.81;94210.19;6165390;23;19907;-75
2023/01/05 10:38:38;;;;;;;21.35;11.13;;;;;;;10.13;58.78;94202.00;6139582;23;20001;-75
2023/01/05 10:41:34;;;;;;;24.85;12.70;;;;;;;10.19;58.46;94208.78;6165365;23;20025;-75
2023/01/05 10:44:18;;;;;;;31.17;12.90;;;;;;;10.23;58.71;94212.44;6165357;23;20012;-75
2023/01/05 10:46:47;;;;;;;23.00;12.13;;;;;;;10.34;58.31;94190.91;6164773;23;20046;-75
2023/01/05 10:49:23;;;;;;;23.50;12.23;;;;;;;10.40;58.27;94185.19;6139357;23;20002;-75
2023/01/05 10:51:50;;;;;;;29.45;13.02;;;;;;;10.52;58.16;94186.50;6164759;23;19997;-75
2023/01/05 10:54:31;;;;;;;25.75;13.93;;;;;;;10.63;58.04;94174.50;6164287;23;20001;-74
2023/01/05 10:57:28;;;;;;;24.88;13.55;;;;;;;10.75;57.54;94173.94;6165048;23;20009;-74
2023/01/05 10:59:55;;;;;;;23.73;13.00;;;;;;;10.80;57.23;94169.25;6165284;23;19997;-74
2023/01/05 11:02:22;;;;;;;27.40;13.63;;;;;;;10.84;56.73;94162.19;6164696;23;20085;-74
2023/01/05 11:04:48;;;;;;;21.85;12.52;;;;;;;10.95;56.37;94165.41;6165052;23;20065;-73
2023/01/05 11:07:14;;;;;;;23.02;12.25;;;;;;;11.03;56.75;94172.66;6165329;23;19997;-74
2023/01/05 11:09:43;;;;;;;27.73;13.90;;;;;;;11.11;56.36;94172.97;6164975;23;20008;-74
2023/01/05 11:12:21;;;;;;;31.40;13.38;;;;;;;11.18;56.09;94165.34;6138859;23;20025;-74
2023/01/05 11:14:50;;;;;;;21.02;12.02;;;;;;;11.30;55.84;94162.09;6164584;23;20219;-74
2023/01/05 11:17:20;;;;;;;27.25;12.63;;;;;;;11.36;55.10;94156.28;6164835;23;20307;-73
2023/01/05 11:19:49;;;;;;;25.95;13.82;;;;;;;11.43;54.81;94153.16;6138985;23;20300;-74
2023/01/05 11:22:43;;;;;;;24.98;11.85;;;;;;;11.51;54.76;94155.06;6165010;23;20044;-80
2023/01/05 11:25:25;;;;;;;24.00;11.90;;;;;;;11.64;54.00;94145.34;6165086;23;20001;-74
2023/01/05 11:28:15;;;;;;;25.35;12.85;;;;;;;11.73;53.79;94143.47;6164750;23;19990;-74
2023/01/05 11:31:07;;;;;;;22.20;12.70;;;;;;;11.72;53.30;94147.22;6164717;23;19993;-74
2023/01/05 11:33:38;;;;;;;38.85;13.82;;;;;;;11.76;53.42;94144.72;6158246;23;20032;-74
2023/01/05 11:36:04;;;;;;;19.63;11.63;;;;;;;11.85;53.27;94146.31;6164573;23;20024;-73
2023/01/05 11:38:30;;;;;;;22.95;12.82;;;;;;;11.98;53.16;94141.94;6164698;23;20001;-74
2023/01/05 11:40:58;;;;;;;21.25;11.10;;;;;;;12.10;52.49;94130.63;6165243;23;20016;-74
2023/01/05 11:43:27;;;;;;;25.15;12.20;;;;;;;12.22;52.34;94140.69;6165107;23;19997;-75
2023/01/05 11:45:56;;;;;;;20.50;12.73;;;;;;;12.28;51.89;94138.63;6164889;23;20314;-75
2023/01/05 11:48:26;;;;;;;28.83;12.70;;;;;;;12.38;51.43;94143.66;6164986;23;20315;-75
2023/01/05 11:50:55;;;;;;;24.00;12.15;;;;;;;12.43;50.98;94133.56;6163876;23;20002;-74
2023/01/05 11:53:33;;;;;;;22.73;12.45;;;;;;;12.55;50.58;94122.22;6162753;23;20008;-75
2023/01/05 11:56:18;;;;;;;20.33;11.60;;;;;;;12.68;50.51;94122.34;6162782;23;20033;-75
2023/01/05 11:58:45;;;;;;;29.88;13.68;;;;;;;12.72;51.53;94120.59;6163990;23;20253;-88
2023/01/05 12:01:13;;;;;;;22.60;12.60;;;;;;;12.81;50.74;94116.00;6164095;23;19999;-85
2023/01/05 12:04:09;;;;;;;25.80;12.10;;;;;;;12.93;50.04;94116.13;6164363;23;20005;-88
2023/01/05 12:06:43;;;;;;;21.85;11.73;;;;;;;13.03;50.53;94118.44;6164522;23;20088;-86
2023/01/05 12:09:25;;;;;;;20.10;11.65;;;;;;;13.13;50.36;94113.84;6139247;23;20009;-87
2023/01/05 12:12:03;;;;;;;23.10;12.30;;;;;;;13.21;48.90;94113.00;6165073;23;20065;-87